Terminal Aerodrome Forecast
Issued by NWS Blacksburg, VA

Home | Current Version | Previous Version | Text Only | Print | Product List | Glossary On
Versions: 1 2 3 4 5 6 7 8 9 10 11 12
000
FTUS41 KRNK 292320
TAFBLF
TAF
KBLF 292320Z 3000/3024 VRB03KT P6SM VCSH OVC080
     FM300300 VRB03KT P6SM SCT030 BKN080
     FM301600 34006KT P6SM VCTS BKN035CB=

USA.gov is the U.S. government's official web portal to all federal, state and local government web resources and services.